AAL1495 KLAX-KSFO
Flight info
| Callsign | AAL1495 |
|---|---|
| Flight time | N/A |
| Altitude | 38000 |
| Route | SUMMR2 STOKD SERFR SERFR4 |
| Aircraft | B772/H-SDE2E3FGHIJ5LORVWXY/LB1D1 |
Departure
| Time | 2026-04-22 04:46 |
|---|---|
| Airport | Los Angeles International Airport (KLAX) |
Arrival
| Time | N/A |
|---|---|
| Airport | San Francisco International Airport (KSFO) |
| Time | Latitude | Longitude | Altitude | Speed | Heading |
|---|---|---|---|---|---|
| 2026-04-22 04:24 | 33.94436 | -118.41441 | 98 ft | 0 kts | 263° |
| 2026-04-22 04:34 | 33.94437 | -118.41439 | 97 ft | 2 kts | 263° |
| 2026-04-22 04:34 | 33.94438 | -118.41409 | 97 ft | 4 kts | 276° |
| 2026-04-22 04:34 | 33.94432 | -118.41378 | 96 ft | 4 kts | 296° |
| 2026-04-22 04:35 | 33.94417 | -118.41352 | 97 ft | 4 kts | 323° |
| 2026-04-22 04:35 | 33.94397 | -118.41340 | 98 ft | 1 kts | 353° |
| 2026-04-22 04:35 | 33.94396 | -118.41340 | 98 ft | 0 kts | 353° |
| 2026-04-22 04:38 | 33.94437 | -118.41346 | 98 ft | 13 kts | 353° |
| 2026-04-22 04:39 | 33.94534 | -118.41360 | 98 ft | 14 kts | 353° |
| 2026-04-22 04:39 | 33.94630 | -118.41375 | 99 ft | 14 kts | 352° |
| 2026-04-22 04:39 | 33.94727 | -118.41390 | 99 ft | 14 kts | 352° |
| 2026-04-22 04:39 | 33.94789 | -118.41317 | 99 ft | 14 kts | 77° |
| 2026-04-22 04:40 | 33.94802 | -118.41196 | 102 ft | 18 kts | 83° |
| 2026-04-22 04:40 | 33.94818 | -118.41034 | 101 ft | 20 kts | 83° |
| 2026-04-22 04:40 | 33.94835 | -118.40872 | 100 ft | 19 kts | 83° |
| 2026-04-22 04:40 | 33.94851 | -118.40710 | 99 ft | 19 kts | 83° |
| 2026-04-22 04:41 | 33.94868 | -118.40547 | 99 ft | 20 kts | 82° |
| 2026-04-22 04:41 | 33.94891 | -118.40326 | 101 ft | 32 kts | 83° |
| 2026-04-22 04:41 | 33.94917 | -118.40070 | 101 ft | 30 kts | 83° |
| 2026-04-22 04:41 | 33.94947 | -118.39939 | 99 ft | 0 kts | 44° |
| 2026-04-22 04:43 | 33.94949 | -118.39936 | 99 ft | 3 kts | 44° |
| 2026-04-22 04:43 | 33.95019 | -118.39928 | 99 ft | 15 kts | 328° |
| 2026-04-22 04:43 | 33.95035 | -118.40006 | 101 ft | 0 kts | 264° |
| 2026-04-22 04:45 | 33.95027 | -118.40095 | 100 ft | 40 kts | 263° |
| 2026-04-22 04:45 | 33.94956 | -118.40788 | 104 ft | 125 kts | 263° |
| 2026-04-22 04:46 | 33.94822 | -118.42072 | 405 ft | 172 kts | 262° |
| 2026-04-22 04:46 | 33.94686 | -118.43506 | 1630 ft | 165 kts | 264° |
| 2026-04-22 04:46 | 33.94550 | -118.44881 | 2455 ft | 169 kts | 264° |
| 2026-04-22 04:46 | 33.94403 | -118.46355 | 2966 ft | 189 kts | 264° |
| 2026-04-22 04:47 | 33.94292 | -118.48068 | 3203 ft | 221 kts | 268° |
| 2026-04-22 04:47 | 33.94236 | -118.50036 | 3644 ft | 243 kts | 268° |
| 2026-04-22 04:47 | 33.94160 | -118.52095 | 4509 ft | 250 kts | 265° |
| 2026-04-22 04:47 | 33.93992 | -118.54209 | 5383 ft | 256 kts | 264° |
| 2026-04-22 04:48 | 33.93812 | -118.56339 | 6372 ft | 256 kts | 264° |
| 2026-04-22 04:48 | 33.93637 | -118.58483 | 7273 ft | 257 kts | 264° |
| 2026-04-22 04:48 | 33.93465 | -118.60631 | 8193 ft | 258 kts | 264° |
| 2026-04-22 04:48 | 33.93295 | -118.62779 | 9102 ft | 257 kts | 263° |
| 2026-04-22 04:49 | 33.93126 | -118.64918 | 9966 ft | 258 kts | 263° |
| 2026-04-22 04:49 | 33.92956 | -118.67081 | 10773 ft | 260 kts | 264° |
| 2026-04-22 04:49 | 33.92789 | -118.69250 | 11729 ft | 260 kts | 264° |
| 2026-04-22 04:49 | 33.92620 | -118.71423 | 12784 ft | 260 kts | 263° |
| 2026-04-22 04:50 | 33.92452 | -118.73597 | 13958 ft | 261 kts | 263° |
| 2026-04-22 04:50 | 33.92282 | -118.75783 | 14982 ft | 264 kts | 264° |
| 2026-04-22 04:50 | 33.92110 | -118.77973 | 15971 ft | 268 kts | 264° |
| 2026-04-22 04:50 | 33.91934 | -118.80222 | 16999 ft | 272 kts | 264° |
| 2026-04-22 04:51 | 33.91755 | -118.82500 | 18036 ft | 275 kts | 264° |
| 2026-04-22 04:51 | 33.91665 | -118.84817 | 18985 ft | 279 kts | 270° |
| 2026-04-22 04:51 | 33.91741 | -118.87165 | 19909 ft | 282 kts | 271° |
| 2026-04-22 04:51 | 33.91845 | -118.89531 | 20865 ft | 284 kts | 271° |
| 2026-04-22 04:52 | 33.91939 | -118.91913 | 21797 ft | 286 kts | 271° |
| 2026-04-22 04:52 | 33.92021 | -118.94315 | 22682 ft | 289 kts | 271° |
| 2026-04-22 04:52 | 33.92096 | -118.96809 | 23056 ft | 309 kts | 271° |
| 2026-04-22 04:52 | 33.92181 | -118.99461 | 23433 ft | 322 kts | 274° |
| 2026-04-22 04:53 | 33.92658 | -119.02154 | 23973 ft | 336 kts | 287° |
| 2026-04-22 04:53 | 33.93705 | -119.04715 | 24703 ft | 345 kts | 296° |
| 2026-04-22 04:53 | 33.94986 | -119.07131 | 25492 ft | 347 kts | 297° |
| 2026-04-22 04:53 | 33.96299 | -119.09586 | 26272 ft | 350 kts | 297° |
| 2026-04-22 04:54 | 33.97611 | -119.12079 | 27050 ft | 354 kts | 297° |
| 2026-04-22 04:54 | 33.98921 | -119.14605 | 27815 ft | 357 kts | 297° |
| 2026-04-22 04:54 | 34.00245 | -119.17150 | 28523 ft | 361 kts | 299° |
| 2026-04-22 04:54 | 34.01912 | -119.19491 | 29093 ft | 377 kts | 312° |
| 2026-04-22 04:55 | 34.04042 | -119.21419 | 29758 ft | 386 kts | 317° |
| 2026-04-22 04:55 | 34.06266 | -119.23291 | 30370 ft | 391 kts | 317° |
| 2026-04-22 04:55 | 34.08512 | -119.25175 | 30920 ft | 393 kts | 317° |
| 2026-04-22 04:55 | 34.10749 | -119.27055 | 31595 ft | 392 kts | 317° |
| 2026-04-22 04:56 | 34.12951 | -119.28925 | 32175 ft | 393 kts | 317° |
| 2026-04-22 04:56 | 34.15193 | -119.30846 | 32637 ft | 397 kts | 316° |
| 2026-04-22 04:56 | 34.17450 | -119.32788 | 33089 ft | 400 kts | 316° |
| 2026-04-22 04:56 | 34.19726 | -119.34750 | 33532 ft | 404 kts | 316° |
| 2026-04-22 04:57 | 34.22024 | -119.36733 | 34007 ft | 407 kts | 316° |
| 2026-04-22 04:57 | 34.24339 | -119.38734 | 34350 ft | 411 kts | 316° |
| 2026-04-22 04:57 | 34.26674 | -119.40752 | 34671 ft | 415 kts | 316° |
| 2026-04-22 04:57 | 34.29032 | -119.42790 | 34963 ft | 418 kts | 316° |
| 2026-04-22 04:58 | 34.31412 | -119.44848 | 35271 ft | 421 kts | 316° |
| 2026-04-22 04:58 | 34.33802 | -119.46915 | 35667 ft | 422 kts | 316° |
| 2026-04-22 04:58 | 34.36190 | -119.48981 | 36099 ft | 421 kts | 316° |
| 2026-04-22 04:58 | 34.38577 | -119.51050 | 36511 ft | 421 kts | 316° |
| 2026-04-22 04:59 | 34.40925 | -119.53098 | 36916 ft | 421 kts | 314° |
| 2026-04-22 04:59 | 34.43112 | -119.55391 | 37326 ft | 411 kts | 308° |
| 2026-04-22 04:59 | 34.45120 | -119.57838 | 37793 ft | 408 kts | 306° |
| 2026-04-22 04:59 | 34.47083 | -119.60331 | 38026 ft | 411 kts | 306° |
| 2026-04-22 05:00 | 34.49070 | -119.62867 | 38077 ft | 415 kts | 306° |
| 2026-04-22 05:00 | 34.53072 | -119.67914 | 38120 ft | 412 kts | 306° |
| 2026-04-22 05:01 | 34.57032 | -119.72827 | 38130 ft | 409 kts | 306° |
| 2026-04-22 05:01 | 34.61021 | -119.77768 | 38121 ft | 410 kts | 307° |
| 2026-04-22 05:02 | 34.65018 | -119.82707 | 38135 ft | 411 kts | 307° |
| 2026-04-22 05:02 | 34.69023 | -119.87663 | 38146 ft | 410 kts | 307° |
| 2026-04-22 05:03 | 34.73015 | -119.92623 | 38151 ft | 410 kts | 307° |
| 2026-04-22 05:03 | 34.76993 | -119.97556 | 38149 ft | 411 kts | 307° |
| 2026-04-22 05:04 | 34.80990 | -120.02540 | 38154 ft | 411 kts | 307° |
| 2026-04-22 05:04 | 34.84995 | -120.07513 | 38157 ft | 411 kts | 307° |
| 2026-04-22 05:05 | 34.88315 | -120.11654 | 38124 ft | 411 kts | 307° |
| 2026-04-22 05:05 | 34.92297 | -120.16637 | 38156 ft | 410 kts | 307° |
| 2026-04-22 05:06 | 34.96277 | -120.21607 | 38167 ft | 409 kts | 307° |
| 2026-04-22 05:06 | 35.00240 | -120.26573 | 38139 ft | 408 kts | 307° |
| 2026-04-22 05:07 | 35.04194 | -120.31536 | 38162 ft | 408 kts | 307° |
| 2026-04-22 05:07 | 35.08129 | -120.36479 | 38164 ft | 409 kts | 307° |
| 2026-04-22 05:08 | 35.12276 | -120.41351 | 38143 ft | 412 kts | 309° |
| 2026-04-22 05:08 | 35.16503 | -120.46013 | 38150 ft | 411 kts | 309° |
| 2026-04-22 05:09 | 35.20739 | -120.50710 | 38160 ft | 410 kts | 309° |
| 2026-04-22 05:09 | 35.24941 | -120.55414 | 38208 ft | 411 kts | 309° |
| 2026-04-22 05:10 | 35.29167 | -120.60178 | 38179 ft | 414 kts | 309° |
| 2026-04-22 05:10 | 35.33414 | -120.64965 | 38166 ft | 415 kts | 309° |
| 2026-04-22 05:11 | 35.37659 | -120.69758 | 38176 ft | 415 kts | 309° |
| 2026-04-22 05:11 | 35.41882 | -120.74527 | 38165 ft | 416 kts | 310° |
| 2026-04-22 05:12 | 35.46139 | -120.79347 | 38179 ft | 416 kts | 309° |
| 2026-04-22 05:12 | 35.50512 | -120.84059 | 38180 ft | 422 kts | 314° |
| 2026-04-22 05:13 | 35.55231 | -120.88394 | 38175 ft | 424 kts | 315° |
| 2026-04-22 05:13 | 35.60000 | -120.92704 | 38177 ft | 427 kts | 315° |
| 2026-04-22 05:14 | 35.64724 | -120.97050 | 38158 ft | 426 kts | 315° |
| 2026-04-22 05:14 | 35.69453 | -121.01448 | 38155 ft | 426 kts | 314° |
| 2026-04-22 05:15 | 35.74174 | -121.05857 | 38187 ft | 425 kts | 315° |
| 2026-04-22 05:15 | 35.78893 | -121.10270 | 38148 ft | 426 kts | 315° |
| 2026-04-22 05:15 | 35.81250 | -121.12476 | 37734 ft | 425 kts | 315° |
| 2026-04-22 05:16 | 35.83590 | -121.14665 | 37265 ft | 418 kts | 314° |
| 2026-04-22 05:16 | 35.85894 | -121.16819 | 36801 ft | 413 kts | 314° |
| 2026-04-22 05:16 | 35.88164 | -121.18945 | 36347 ft | 407 kts | 314° |
| 2026-04-22 05:16 | 35.90403 | -121.21045 | 35906 ft | 402 kts | 314° |
| 2026-04-22 05:17 | 35.92591 | -121.23102 | 35481 ft | 398 kts | 314° |
| 2026-04-22 05:17 | 35.94782 | -121.25163 | 35010 ft | 394 kts | 314° |
| 2026-04-22 05:17 | 35.96949 | -121.27204 | 34554 ft | 389 kts | 314° |
| 2026-04-22 05:17 | 35.99094 | -121.29224 | 34094 ft | 385 kts | 314° |
| 2026-04-22 05:18 | 36.03305 | -121.33195 | 33100 ft | 375 kts | 314° |
| 2026-04-22 05:18 | 36.05346 | -121.35120 | 32669 ft | 371 kts | 314° |
| 2026-04-22 05:18 | 36.07407 | -121.37019 | 32229 ft | 370 kts | 316° |
| 2026-04-22 05:19 | 36.09550 | -121.38768 | 31813 ft | 368 kts | 318° |
| 2026-04-22 05:19 | 36.11715 | -121.40436 | 31377 ft | 365 kts | 318° |
| 2026-04-22 05:19 | 36.13866 | -121.42069 | 30954 ft | 362 kts | 318° |
| 2026-04-22 05:19 | 36.16001 | -121.43693 | 30537 ft | 358 kts | 318° |
| 2026-04-22 05:20 | 36.18102 | -121.45309 | 30129 ft | 353 kts | 318° |
| 2026-04-22 05:20 | 36.20176 | -121.46911 | 29648 ft | 348 kts | 317° |
| 2026-04-22 05:20 | 36.22221 | -121.48497 | 29179 ft | 346 kts | 317° |
| 2026-04-22 05:20 | 36.24249 | -121.50080 | 28652 ft | 341 kts | 317° |
| 2026-04-22 05:21 | 36.26205 | -121.51644 | 28283 ft | 330 kts | 317° |
| 2026-04-22 05:21 | 36.28135 | -121.53164 | 27919 ft | 327 kts | 317° |
| 2026-04-22 05:21 | 36.30057 | -121.54657 | 27490 ft | 324 kts | 317° |
| 2026-04-22 05:21 | 36.31966 | -121.56124 | 27096 ft | 322 kts | 317° |
| 2026-04-22 05:22 | 36.33861 | -121.57584 | 26671 ft | 319 kts | 317° |
| 2026-04-22 05:22 | 36.35707 | -121.59029 | 26298 ft | 316 kts | 317° |
| 2026-04-22 05:22 | 36.37558 | -121.60495 | 25903 ft | 315 kts | 317° |
| 2026-04-22 05:22 | 36.39399 | -121.61944 | 25536 ft | 313 kts | 317° |
| 2026-04-22 05:23 | 36.41243 | -121.63395 | 25146 ft | 313 kts | 317° |
| 2026-04-22 05:23 | 36.43081 | -121.64842 | 24791 ft | 313 kts | 317° |
| 2026-04-22 05:23 | 36.44924 | -121.66293 | 24378 ft | 313 kts | 317° |
| 2026-04-22 05:23 | 36.46762 | -121.67741 | 23990 ft | 313 kts | 317° |
| 2026-04-22 05:24 | 36.48602 | -121.69190 | 23585 ft | 313 kts | 317° |
| 2026-04-22 05:24 | 36.50442 | -121.70634 | 23134 ft | 313 kts | 317° |
| 2026-04-22 05:24 | 36.52250 | -121.72059 | 22729 ft | 310 kts | 317° |
| 2026-04-22 05:24 | 36.54071 | -121.73495 | 22332 ft | 309 kts | 317° |
| 2026-04-22 05:25 | 36.55879 | -121.74920 | 21961 ft | 307 kts | 317° |
| 2026-04-22 05:25 | 36.57678 | -121.76344 | 21583 ft | 306 kts | 317° |
| 2026-04-22 05:25 | 36.58867 | -121.77287 | 21324 ft | 305 kts | 317° |